Time;durP1;ratioP1;P1;durP2;ratioP2;P2;SDS_P1;SDS_P2;PMS_P1;PMS_P2;Temp;Humidity;BMP_temperature;BMP_pressure;BME280_temperature;BME280_humidity;BME280_pressure;Samples;Min_cycle;Max_cycle;Signal;HPM_P1;HPM_P2
2022/03/24 00:00:07;;;;;;;21.63;14.90;;;6.90;87.30;;;6.29;90.00;101680.81;4982224;28;20065;-80
2022/03/24 00:02:38;;;;;;;20.90;15.98;;;6.90;88.20;;;6.30;89.45;101682.59;4973349;28;20479;-80
2022/03/24 00:05:07;;;;;;;21.08;15.02;;;6.80;88.50;;;6.30;87.90;101677.34;4958573;28;20057;-79
2022/03/24 00:07:35;;;;;;;24.15;16.33;;;6.80;88.20;;;6.39;83.57;101682.72;4962629;28;20166;-79
2022/03/24 00:10:03;;;;;;;23.80;16.45;;;6.80;87.40;;;6.29;87.66;101681.72;4959968;28;20057;-79
2022/03/24 00:12:30;;;;;;;24.00;15.15;;;6.80;88.90;;;6.16;90.71;101680.63;4959158;28;20082;-79
2022/03/24 00:14:57;;;;;;;24.52;16.02;;;8.00;90.30;;;6.07;90.73;101675.28;4957886;28;20141;-78
2022/03/24 00:17:24;;;;;;;18.33;14.85;;;6.70;90.00;;;6.08;89.91;101680.50;4961582;28;20049;-80
2022/03/24 00:19:51;;;;;;;19.50;13.85;;;6.70;90.00;;;6.00;91.32;101676.88;4976830;28;20041;-81
2022/03/24 00:22:18;;;;;;;21.55;15.48;;;6.60;90.40;;;5.96;92.21;101685.53;4990484;28;20046;-79
2022/03/24 00:24:45;;;;;;;20.83;15.95;;;6.60;90.60;;;5.89;94.91;101679.31;4976383;28;20047;-79
2022/03/24 00:27:13;;;;;;;19.95;15.65;;;6.50;91.10;;;5.87;92.19;101677.53;4973712;28;20117;-79
2022/03/24 00:29:40;;;;;;;20.55;15.68;;;6.50;90.90;;;5.90;91.26;101678.47;4979595;28;20051;-81
2022/03/24 00:32:07;;;;;;;22.20;15.73;;;6.50;90.80;;;5.87;90.04;101680.16;4993493;28;20492;-79
2022/03/24 00:34:35;;;;;;;24.83;17.40;;;6.40;90.80;;;5.84;90.29;101669.66;4998057;28;20035;-79
2022/03/24 00:37:03;;;;;;;24.58;16.48;;;6.50;90.80;;;5.82;92.47;101672.22;5000056;28;20077;-79
2022/03/24 00:39:34;;;;;;;22.58;17.63;;;6.30;91.10;;;5.81;91.72;101667.84;4998522;28;20049;-80
2022/03/24 00:42:09;;;;;;;27.98;19.77;;;8.00;91.20;;;5.65;93.05;101670.22;4980197;28;20050;-78
2022/03/24 00:44:43;;;;;;;19.67;15.70;;;6.30;91.30;;;5.71;88.05;101665.97;4978069;28;20054;-77
2022/03/24 00:47:13;;;;;;;23.13;17.40;;;8.40;91.20;;;5.65;88.00;101658.91;4978322;28;20054;-78
2022/03/24 00:49:42;;;;;;;23.55;18.02;;;7.60;90.90;;;5.64;88.10;101671.06;4978240;28;20042;-78
2022/03/24 00:52:11;;;;;;;28.00;16.33;;;6.90;90.80;;;5.66;92.74;101658.91;4977748;28;20042;-78
2022/03/24 00:54:39;;;;;;;22.27;16.05;;;6.20;91.20;;;5.63;91.89;101663.22;4976854;28;20050;-79
2022/03/24 00:57:07;;;;;;;22.05;16.08;;;6.10;91.00;;;5.43;95.96;101663.72;4981521;28;20431;-80
2022/03/24 00:59:36;;;;;;;21.50;15.90;;;7.50;92.00;;;5.31;95.81;101669.59;4982895;28;20053;-80
2022/03/24 01:02:06;;;;;;;23.20;16.67;;;7.10;91.80;;;5.31;96.81;101668.75;4995903;28;20042;-79
2022/03/24 01:04:34;;;;;;;20.55;16.73;;;5.90;91.70;;;5.25;98.70;101669.50;4979802;28;20164;-79
2022/03/24 01:07:03;;;;;;;21.25;15.48;;;7.10;92.20;;;5.24;96.96;101666.00;4994294;28;20054;-78
2022/03/24 01:09:30;;;;;;;19.33;15.57;;;5.80;91.60;;;5.11;100.00;101670.13;4994195;28;20042;-78
2022/03/24 01:11:57;;;;;;;23.70;17.13;;;5.80;92.60;;;4.99;99.31;101663.75;4977749;28;20049;-78
2022/03/24 01:14:25;;;;;;;23.27;13.82;;;5.70;92.40;;;4.82;100.00;101657.38;4976745;28;20050;-77
2022/03/24 01:16:52;;;;;;;21.98;15.18;;;5.70;92.50;;;4.74;100.00;101656.31;4981816;28;20144;-79
2022/03/24 01:19:19;;;;;;;20.88;15.13;;;5.70;92.40;;;4.82;100.00;101659.09;4984569;28;20050;-79
2022/03/24 01:21:47;;;;;;;26.80;17.45;;;5.50;92.50;;;4.87;100.00;101667.00;4984411;28;20374;-78
2022/03/24 01:24:14;;;;;;;20.92;14.75;;;5.50;92.50;;;4.94;100.00;101659.34;4983517;28;20120;-78
2022/03/24 01:26:43;;;;;;;19.02;14.70;;;5.50;92.80;;;4.88;100.00;101663.53;4999980;28;20046;-79
2022/03/24 01:29:12;;;;;;;21.98;15.70;;;5.50;92.90;;;4.79;100.00;101659.91;4998772;28;20054;-79
2022/03/24 01:31:42;;;;;;;22.05;15.73;;;5.50;92.80;;;4.59;100.00;101663.81;4979784;28;20081;-81
2022/03/24 01:34:09;;;;;;;25.05;17.10;;;7.10;93.20;;;4.65;99.64;101658.75;4975890;28;20046;-79
2022/03/24 01:36:36;;;;;;;22.13;15.52;;;5.30;92.50;;;4.61;100.00;101655.19;4977911;28;20050;-81
2022/03/24 01:39:06;;;;;;;28.40;18.10;;;5.30;92.50;;;4.54;100.00;101659.38;4993452;28;20771;-78
2022/03/24 01:41:33;;;;;;;22.23;17.05;;;7.40;93.80;;;4.39;100.00;101657.34;4976538;28;20074;-78
2022/03/24 01:44:00;;;;;;;25.85;17.25;;;5.20;93.00;;;4.36;100.00;101654.63;4990005;28;20042;-79
2022/03/24 01:46:28;;;;;;;22.10;16.25;;;5.20;93.00;;;4.40;100.00;101652.97;4977847;28;20057;-78
2022/03/24 01:48:55;;;;;;;24.90;15.75;;;5.10;93.00;;;4.45;100.00;101656.59;4996436;28;20571;-78
2022/03/24 01:51:22;;;;;;;23.80;16.83;;;5.10;93.30;;;4.31;100.00;101650.19;4976256;28;20080;-79
2022/03/24 01:53:51;;;;;;;27.30;18.00;;;7.20;93.60;;;4.26;100.00;101647.47;4975051;28;20133;-79
2022/03/24 01:56:18;;;;;;;22.55;16.35;;;5.00;93.40;;;4.21;100.00;101651.69;4975594;28;20050;-79
2022/03/24 01:58:48;;;;;;;24.60;17.00;;;6.40;93.50;;;4.22;100.00;101648.25;4994447;28;20482;-79
2022/03/24 02:01:36;;;;;;;24.42;17.60;;;5.40;93.30;;;4.17;100.00;101658.56;4993525;28;20443;-84
2022/03/24 02:04:04;;;;;;;26.42;16.98;;;5.60;93.30;;;4.10;100.00;101652.34;4975747;28;20566;-79
2022/03/24 02:06:33;;;;;;;24.38;17.92;;;4.90;93.30;;;4.03;100.00;101649.56;4974037;28;20047;-81
2022/03/24 02:09:04;;;;;;;26.10;16.52;;;4.70;93.40;;;3.93;100.00;101654.53;4977056;28;20039;-81
2022/03/24 02:11:32;;;;;;;24.50;16.83;;;4.70;93.40;;;4.00;100.00;101650.34;4977117;28;20054;-79
2022/03/24 02:14:01;;;;;;;22.88;17.13;;;4.60;93.40;;;3.97;100.00;101645.94;4975920;28;20455;-80
2022/03/24 02:16:38;;;;;;;22.77;15.88;;;4.60;93.60;;;3.87;100.00;101649.19;4975857;28;20070;-79
2022/03/24 02:19:11;;;;;;;25.02;17.23;;;4.60;93.70;;;3.93;100.00;101645.84;4976019;28;20101;-79
2022/03/24 02:21:40;;;;;;;24.92;17.52;;;4.60;93.60;;;3.82;100.00;101655.97;4975766;28;20141;-79
2022/03/24 02:24:09;;;;;;;23.05;17.08;;;4.90;94.20;;;3.65;100.00;101653.84;4974850;28;20046;-79
2022/03/24 02:26:37;;;;;;;26.10;16.73;;;4.50;93.70;;;3.82;100.00;101655.97;4977168;28;20060;-79
2022/03/24 02:29:07;;;;;;;23.17;17.48;;;6.60;94.00;;;3.74;100.00;101652.31;4999071;28;20110;-78
2022/03/24 02:31:37;;;;;;;29.45;18.15;;;5.00;93.60;;;3.69;100.00;101653.09;4998567;28;20404;-80
2022/03/24 02:36:57;;;;;;;24.52;17.63;;;4.40;93.90;;;3.60;100.00;101644.19;5000028;28;20044;-78
2022/03/24 02:39:24;;;;;;;26.88;17.02;;;4.30;93.40;;;3.49;100.00;101643.88;4992986;28;20046;-77
2022/03/24 02:41:54;;;;;;;23.40;16.65;;;6.00;94.30;;;3.49;100.00;101657.78;4991724;28;20046;-81
2022/03/24 02:44:30;;;;;;;23.50;16.25;;;4.20;93.70;;;3.57;100.00;101644.97;4973449;28;20490;-79
2022/03/24 02:47:00;;;;;;;24.63;16.85;;;4.20;94.00;;;3.37;100.00;101660.06;4989872;28;20311;-79
2022/03/24 02:49:31;;;;;;;24.05;16.73;;;4.20;94.30;;;3.48;100.00;101650.81;4991881;28;20046;-78
2022/03/24 02:52:00;;;;;;;22.23;15.27;;;5.80;94.50;;;3.38;100.00;101644.50;4974875;28;20104;-81
2022/03/24 02:54:29;;;;;;;26.63;16.65;;;4.80;94.30;;;3.37;100.00;101653.16;4973545;28;20048;-82
2022/03/24 02:56:58;;;;;;;26.33;16.95;;;5.80;94.90;;;3.24;100.00;101648.47;4996972;28;20046;-79
2022/03/24 02:59:25;;;;;;;24.63;16.20;;;4.10;94.50;;;3.41;100.00;101651.50;4997932;28;20055;-79
2022/03/24 03:02:01;;;;;;;25.83;16.17;;;4.00;94.50;;;3.53;100.00;101649.22;5001834;28;20418;-79
2022/03/24 03:04:31;;;;;;;29.90;16.85;;;4.00;94.70;;;3.42;100.00;101652.38;4995846;28;20780;-79
2022/03/24 03:07:02;;;;;;;25.90;19.52;;;4.90;95.10;;;3.23;100.00;101652.75;4984550;28;20061;-78
2022/03/24 03:09:32;;;;;;;26.42;17.17;;;6.20;95.50;;;3.19;100.00;101658.72;4980217;28;20133;-78
2022/03/24 03:12:00;;;;;;;25.73;16.92;;;4.00;95.10;;;3.21;100.00;101667.44;4994605;28;20133;-78
2022/03/24 03:14:29;;;;;;;20.58;16.15;;;3.90;94.90;;;3.05;100.00;101666.16;4977323;28;20605;-78
2022/03/24 03:16:59;;;;;;;23.17;17.40;;;3.90;95.50;;;3.03;100.00;101660.00;4992122;28;20065;-79
2022/03/24 03:19:27;;;;;;;24.55;18.92;;;3.80;95.60;;;3.02;100.00;101671.25;4972168;28;20046;-79
2022/03/24 03:21:54;;;;;;;27.17;18.15;;;5.50;96.20;;;3.02;100.00;101660.00;4993625;28;20042;-79
2022/03/24 03:24:22;;;;;;;26.50;17.20;;;3.60;95.70;;;2.97;100.00;101665.06;4992216;28;20050;-78
2022/03/24 03:26:52;;;;;;;25.90;18.00;;;5.50;96.60;;;2.96;100.00;101665.91;4990787;28;20052;-80
2022/03/24 03:29:23;;;;;;;24.52;17.55;;;5.60;96.10;;;2.93;100.00;101676.22;4991349;28;20043;-80
2022/03/24 03:31:55;;;;;;;22.35;17.73;;;5.70;95.80;;;2.90;100.00;101669.19;4991462;28;20051;-78
2022/03/24 03:34:24;;;;;;;23.52;18.00;;;4.80;95.80;;;2.87;100.00;101681.22;4976802;28;20081;-75
2022/03/24 03:36:54;;;;;;;24.45;16.80;;;3.50;95.40;;;2.77;100.00;101674.88;4988641;28;20050;-75
2022/03/24 03:39:23;;;;;;;24.08;16.85;;;3.60;95.50;;;2.66;100.00;101678.06;4974704;28;20154;-73
2022/03/24 03:41:51;;;;;;;25.85;17.42;;;3.60;95.40;;;2.68;100.00;101671.19;4989848;28;20061;-73
2022/03/24 03:44:19;;;;;;;23.90;17.30;;;3.60;95.50;;;2.58;100.00;101676.06;4973544;28;20050;-73
2022/03/24 03:46:47;;;;;;;23.88;17.75;;;3.50;95.50;;;2.66;100.00;101678.06;4986533;28;20585;-73
2022/03/24 03:49:14;;;;;;;23.80;18.65;;;5.20;96.10;;;2.66;100.00;101688.47;4976513;28;20047;-73
2022/03/24 03:51:41;;;;;;;24.20;18.63;;;3.10;95.80;;;2.60;100.00;101679.59;4987778;28;20053;-74
2022/03/24 03:54:08;;;;;;;29.38;18.25;;;4.40;96.50;;;2.65;100.00;101678.91;4989751;28;20046;-73
2022/03/24 03:56:37;;;;;;;26.45;18.02;;;3.30;95.80;;;2.45;100.00;101680.88;4989156;28;20142;-75
2022/03/24 03:59:06;;;;;;;23.38;17.27;;;3.30;96.00;;;2.32;100.00;101674.41;4974910;28;20089;-74
2022/03/24 04:01:33;;;;;;;25.33;18.40;;;3.20;95.90;;;2.34;100.00;101677.06;4989532;28;20042;-74
2022/03/24 04:04:00;;;;;;;26.65;18.65;;;3.20;96.10;;;2.36;100.00;101676.28;4982962;28;20105;-75
2022/03/24 04:06:27;;;;;;;27.60;20.92;;;3.20;96.20;;;2.33;100.00;101681.38;4986734;28;20049;-75
2022/03/24 04:08:54;;;;;;;29.95;22.08;;;3.20;96.70;;;2.21;100.00;101674.09;4968816;28;20607;-74
2022/03/24 04:11:21;;;;;;;30.15;19.67;;;3.00;96.50;;;2.09;100.00;101666.78;4953752;28;20058;-74
2022/03/24 04:13:48;;;;;;;31.52;21.63;;;3.00;96.20;;;2.20;100.00;101672.31;4969500;28;20042;-74
2022/03/24 04:16:16;;;;;;;27.58;20.40;;;3.00;96.90;;;2.29;100.00;101673.47;4954037;28;20046;-74
2022/03/24 04:18:48;;;;;;;24.48;18.30;;;2.90;97.20;;;2.21;100.00;101674.09;4970785;28;20393;-74
2022/03/24 04:21:16;;;;;;;27.10;18.67;;;3.00;97.30;;;2.31;100.00;101674.38;4986814;28;20051;-74
2022/03/24 04:23:44;;;;;;;28.15;19.75;;;5.00;98.10;;;2.35;100.00;101668.44;4954204;28;20042;-74
2022/03/24 04:26:11;;;;;;;27.85;20.35;;;3.00;97.70;;;2.29;100.00;101673.47;4969947;28;20460;-74
2022/03/24 04:28:40;;;;;;;25.90;19.27;;;3.00;97.40;;;2.35;100.00;101666.75;4987158;28;20676;-73
2022/03/24 04:31:07;;;;;;;30.35;18.33;;;3.00;97.30;;;2.42;100.00;101673.00;4954196;28;20157;-73
2022/03/24 04:33:35;;;;;;;24.92;18.15;;;4.10;97.60;;;2.50;100.00;101681.91;4953271;28;20074;-73
2022/03/24 04:36:02;;;;;;;26.95;18.52;;;3.10;97.00;;;2.49;100.00;101677.53;4975296;28;20050;-73
2022/03/24 04:38:29;;;;;;;27.45;18.90;;;3.10;97.00;;;2.48;100.00;101678.38;4991189;28;20129;-74
2022/03/24 04:40:56;;;;;;;27.10;18.55;;;3.10;97.20;;;2.53;100.00;101681.13;4984623;28;20059;-73
2022/03/24 04:43:24;;;;;;;29.02;17.50;;;3.20;96.90;;;2.41;100.00;101682.50;4990339;28;20097;-74
2022/03/24 04:45:52;;;;;;;26.08;17.35;;;3.10;96.90;;;2.33;100.00;101685.69;4988969;28;20042;-74
2022/03/24 04:48:20;;;;;;;23.65;17.65;;;3.20;97.00;;;2.33;100.00;101683.09;4972836;28;20394;-75
2022/03/24 04:50:47;;;;;;;22.45;16.75;;;3.10;96.50;;;2.34;100.00;101684.88;4991221;28;20049;-75
2022/03/24 04:53:15;;;;;;;28.23;19.23;;;3.10;96.40;;;2.19;100.00;101695.66;4988393;28;20043;-73
2022/03/24 04:55:45;;;;;;;26.65;18.08;;;4.80;97.20;;;2.19;100.00;101688.75;4989472;28;20034;-74
2022/03/24 04:58:13;;;;;;;27.38;17.95;;;2.90;96.60;;;2.08;100.00;101693.59;4989600;28;20424;-76
2022/03/24 05:00:41;;;;;;;28.85;16.98;;;3.00;96.60;;;2.02;100.00;101692.50;4989038;28;20049;-75
2022/03/24 05:03:08;;;;;;;26.25;17.42;;;2.80;96.70;;;1.94;100.00;101700.91;4971916;28;20164;-76
2022/03/24 05:05:35;;;;;;;24.05;17.98;;;2.80;96.90;;;1.90;100.00;101698.19;5006109;28;20038;-76
2022/03/24 05:08:05;;;;;;;22.85;16.63;;;2.80;97.10;;;2.02;100.00;101702.91;4990058;28;20046;-75
2022/03/24 05:10:32;;;;;;;22.77;16.85;;;2.70;97.10;;;1.92;100.00;101707.78;4990039;28;20050;-75
2022/03/24 05:12:59;;;;;;;24.75;16.90;;;4.40;97.80;;;1.88;100.00;101705.06;4988190;28;20104;-75
2022/03/24 05:15:26;;;;;;;21.75;16.02;;;2.60;97.30;;;1.82;100.00;101706.59;4972528;28;20488;-74
2022/03/24 05:17:53;;;;;;;30.23;16.88;;;4.20;97.80;;;1.87;100.00;101704.16;4984215;28;20065;-73
2022/03/24 05:20:21;;;;;;;24.10;17.55;;;2.70;97.60;;;1.97;100.00;101710.53;4992601;28;20407;-76
2022/03/24 05:22:48;;;;;;;24.58;17.42;;;2.50;97.10;;;1.85;100.00;101705.81;4988666;28;20459;-74
2022/03/24 05:25:15;;;;;;;29.00;19.25;;;2.60;97.20;;;1.82;100.00;101708.31;4988682;28;20190;-75
2022/03/24 05:27:42;;;;;;;24.48;17.00;;;4.50;97.60;;;1.88;100.00;101711.09;4973044;28;20129;-76
2022/03/24 05:30:10;;;;;;;25.48;17.42;;;4.50;97.60;;;1.74;100.00;101707.16;4989152;28;20458;-76
2022/03/24 05:32:41;;;;;;;24.55;16.75;;;2.50;97.30;;;1.70;100.00;101712.25;4988966;28;20101;-76
2022/03/24 05:35:09;;;;;;;23.45;17.30;;;3.80;97.90;;;1.67;100.00;101712.16;4990106;28;20105;-78
2022/03/24 05:37:37;;;;;;;25.23;17.10;;;5.00;98.30;;;1.73;100.00;101718.38;4972765;28;20061;-76
2022/03/24 05:40:06;;;;;;;26.15;18.88;;;2.40;97.50;;;1.82;100.00;101721.28;4993670;28;20081;-74
2022/03/24 05:42:33;;;;;;;24.98;17.27;;;2.50;97.20;;;1.86;100.00;101717.06;4979452;28;20176;-76
2022/03/24 05:45:00;;;;;;;23.50;17.00;;;3.10;97.40;;;1.94;100.00;101713.91;4989470;28;20053;-77
2022/03/24 05:47:27;;;;;;;28.75;19.27;;;2.60;97.20;;;1.78;100.00;101724.59;4975051;28;20440;-76
2022/03/24 05:49:55;;;;;;;23.63;17.65;;;2.70;97.20;;;1.79;100.00;101723.75;4970968;28;20109;-76
2022/03/24 05:52:28;;;;;;;23.80;17.13;;;2.50;97.40;;;1.76;100.00;101711.59;4969292;28;20047;-76
2022/03/24 05:54:55;;;;;;;23.45;17.65;;;2.60;97.60;;;1.88;100.00;101721.50;4953561;28;20042;-76
2022/03/24 05:57:23;;;;;;;23.60;18.10;;;2.60;97.60;;;1.80;100.00;101721.22;4986034;28;20055;-76
2022/03/24 05:59:50;;;;;;;26.75;19.10;;;2.20;97.70;;;1.93;100.00;101725.13;4971207;28;20493;-77
2022/03/24 06:02:18;;;;;;;28.50;19.75;;;2.60;97.60;;;2.02;100.00;101713.28;4956467;28;20062;-77
2022/03/24 06:04:47;;;;;;;29.50;19.15;;;2.60;97.50;;;1.96;100.00;101720.06;4970573;28;20591;-77
2022/03/24 06:07:17;;;;;;;22.85;17.20;;;2.60;97.60;;;2.00;100.00;101720.16;4970412;28;20047;-75
2022/03/24 06:09:45;;;;;;;;;;;2.70;97.70;;;2.04;100.00;101722.00;4973339;28;20039;-77
2022/03/24 06:12:13;;;;;;;29.17;19.15;;;4.50;98.20;;;2.00;100.00;101728.78;4969898;28;19926;-75
2022/03/24 06:14:40;;;;;;;31.30;20.02;;;2.70;97.50;;;1.93;100.00;101724.25;4938565;28;20047;-77
2022/03/24 06:17:08;;;;;;;28.88;18.58;;;2.80;97.70;;;1.91;100.00;101724.19;4970224;28;20050;-76
2022/03/24 06:19:37;;;;;;;25.17;18.30;;;2.80;98.20;;;2.01;100.00;101730.56;4953911;28;20049;-77
2022/03/24 06:22:05;;;;;;;28.27;19.10;;;2.70;98.20;;;2.06;100.00;101728.13;4954696;28;20043;-77
2022/03/24 06:24:33;;;;;;;29.55;17.30;;;2.80;98.10;;;2.06;100.00;101730.72;4970007;28;20049;-77
2022/03/24 06:27:00;;;;;;;30.38;19.73;;;2.90;97.90;;;1.96;100.00;101733.03;4969707;28;20039;-76
2022/03/24 06:29:27;;;;;;;26.90;18.20;;;2.70;98.20;;;1.97;100.00;101741.69;4953382;28;20117;-77
2022/03/24 06:31:54;;;;;;;27.27;18.48;;;2.80;98.00;;;2.02;100.00;101739.25;4968598;28;20494;-75
2022/03/24 06:34:21;;;;;;;25.23;17.92;;;2.80;97.80;;;2.17;100.00;101742.34;4986173;28;20077;-76
2022/03/24 06:36:49;;;;;;;29.77;18.92;;;2.80;98.20;;;2.28;100.00;101734.03;4954303;28;20045;-77
2022/03/24 06:39:17;;;;;;;28.23;18.27;;;5.20;98.80;;;2.45;100.00;101726.75;4955736;28;20081;-75
2022/03/24 06:41:44;;;;;;;27.58;18.67;;;3.30;98.30;;;2.52;100.00;101728.72;4969577;28;20038;-77
2022/03/24 06:44:18;;;;;;;26.48;18.98;;;4.50;98.70;;;2.64;100.00;101729.09;4985031;28;20058;-76
2022/03/24 06:46:45;;;;;;;28.58;19.27;;;3.20;98.30;;;2.72;100.00;101731.91;4968964;28;20061;-76
2022/03/24 06:49:12;;;;;;;27.35;17.92;;;3.70;98.80;;;2.77;100.00;101734.66;4953518;28;20046;-76
2022/03/24 06:51:39;;;;;;;40.67;20.27;;;3.40;98.40;;;2.90;100.00;101730.72;4985403;28;20077;-78
2022/03/24 06:54:07;;;;;;;27.85;18.65;;;5.20;99.00;;;3.06;100.00;101734.66;4969445;28;20146;-76
2022/03/24 06:56:34;;;;;;;27.73;18.95;;;3.50;98.40;;;3.20;100.00;101735.03;4969516;28;20038;-76
2022/03/24 06:59:01;;;;;;;27.50;18.50;;;3.60;98.20;;;3.28;100.00;101733.53;4985803;28;20055;-78
2022/03/24 07:01:28;;;;;;;31.13;20.25;;;5.70;98.50;;;3.36;100.00;101737.25;4969977;28;20420;-76
2022/03/24 07:03:56;;;;;;;25.00;18.20;;;4.60;98.20;;;3.41;100.00;101739.97;4968434;28;20097;-76
2022/03/24 07:06:23;;;;;;;29.60;18.30;;;3.90;97.80;;;3.40;100.00;101746.91;4970397;28;20061;-78
2022/03/24 07:08:50;;;;;;;25.20;18.42;;;4.40;97.80;;;3.56;100.00;101739.50;4968795;28;20386;-76
2022/03/24 07:11:17;;;;;;;26.83;18.13;;;5.60;98.20;;;3.61;100.00;101743.09;4953319;28;20591;-77
2022/03/24 07:13:44;;;;;;;24.33;18.90;;;4.10;97.70;;;3.77;100.00;101746.13;4989988;28;20046;-76
2022/03/24 07:16:11;;;;;;;26.10;19.40;;;6.30;98.00;;;3.93;100.00;101743.06;4976121;28;20047;-78
2022/03/24 07:18:38;;;;;;;26.10;18.20;;;4.40;97.60;;;4.07;100.00;101742.53;4989415;28;20523;-77
2022/03/24 07:21:06;;;;;;;23.02;17.98;;;4.70;97.20;;;4.22;100.00;101735.09;4991051;28;20516;-79
2022/03/24 07:23:33;;;;;;;28.38;19.88;;;4.50;97.20;;;4.32;100.00;101736.19;4989555;28;20074;-77
2022/03/24 07:26:01;;;;;;;31.40;20.48;;;4.60;96.70;;;4.47;100.00;101733.09;4977619;28;20050;-76
2022/03/24 07:28:28;;;;;;;25.38;18.52;;;4.70;96.70;;;4.59;100.00;101734.19;4973790;28;20066;-76
2022/03/24 07:30:55;;;;;;;28.75;19.90;;;4.80;96.70;;;4.74;100.00;101741.50;4972649;28;20039;-74
2022/03/24 07:33:22;;;;;;;23.35;18.10;;;5.00;96.80;;;4.88;100.00;101741.78;4973233;28;20594;-77
2022/03/24 07:35:49;;;;;;;27.17;19.15;;;5.10;96.80;;;5.00;100.00;101747.28;4955904;28;20047;-77
2022/03/24 07:38:17;;;;;;;27.40;19.77;;;5.20;96.30;;;5.12;100.00;101746.66;4973495;28;20496;-78
2022/03/24 07:40:51;;;;;;;23.42;17.92;;;5.40;96.20;;;5.24;100.00;101746.03;4973625;28;20068;-77
2022/03/24 07:43:18;;;;;;;27.73;18.50;;;5.50;96.20;;;5.36;100.00;101746.25;4991922;28;20606;-77
2022/03/24 07:45:45;;;;;;;23.73;17.65;;;6.30;96.20;;;5.46;100.00;101741.22;4972036;28;20061;-76
2022/03/24 07:48:16;;;;;;;29.67;17.80;;;5.70;95.80;;;5.54;100.00;101740.53;4959857;28;20054;-77
2022/03/24 07:50:48;;;;;;;25.38;19.27;;;5.70;95.30;;;5.67;100.00;101744.22;4962802;28;20112;-74
2022/03/24 07:53:18;;;;;;;24.23;17.20;;;5.80;95.40;;;5.75;100.00;101740.91;4958493;28;20082;-76
2022/03/24 07:55:46;;;;;;;26.33;18.80;;;7.60;95.20;;;5.85;100.00;101737.56;4972704;28;20437;-78
2022/03/24 07:58:17;;;;;;;26.25;18.60;;;6.00;94.60;;;5.99;100.00;101740.44;4957401;28;20051;-77
2022/03/24 08:00:45;;;;;;;28.70;19.08;;;7.20;95.70;;;6.10;100.00;101736.31;4971597;28;20054;-76
2022/03/24 08:03:16;;;;;;;25.20;19.23;;;6.30;95.20;;;6.24;100.00;101738.25;4959947;28;20499;-77
2022/03/24 08:05:45;;;;;;;23.63;18.50;;;6.30;95.30;;;6.38;100.00;101741.09;4991103;28;20043;-77
2022/03/24 08:08:14;;;;;;;23.80;16.92;;;6.50;95.20;;;6.52;100.00;101744.81;4986773;28;20046;-77
2022/03/24 08:10:44;;;;;;;24.70;18.77;;;6.60;94.90;;;6.64;97.69;101740.63;5003986;28;20049;-75
2022/03/24 08:13:15;;;;;;;23.73;17.38;;;7.20;94.70;;;6.74;95.06;101747.72;4987011;28;20039;-77
2022/03/24 08:15:43;;;;;;;27.20;20.20;;;6.80;94.30;;;6.88;94.18;101747.03;5003810;28;20042;-76
2022/03/24 08:18:11;;;;;;;28.40;19.20;;;7.00;94.20;;;6.99;93.25;101744.56;5005172;28;20050;-77
2022/03/24 08:20:43;;;;;;;28.35;19.48;;;7.10;94.00;;;7.11;92.56;101744.72;4991682;28;20046;-76
2022/03/24 08:23:11;;;;;;;24.70;19.70;;;7.20;94.00;;;7.21;90.42;101743.09;4988884;28;20101;-76
2022/03/24 08:25:40;;;;;;;27.90;19.73;;;7.30;93.70;;;7.35;90.04;101738.91;4990966;28;20133;-75
2022/03/24 08:28:08;;;;;;;26.77;20.42;;;7.40;93.70;;;7.48;89.78;101741.66;4958787;28;20088;-76
2022/03/24 08:30:35;;;;;;;28.10;19.48;;;7.50;93.60;;;7.61;85.76;101740.94;4990226;28;20054;-75
2022/03/24 08:33:03;;;;;;;30.73;19.05;;;7.70;93.30;;;7.77;84.16;101741.09;4990072;28;20043;-76
2022/03/24 08:35:30;;;;;;;26.05;19.83;;;7.80;93.00;;;7.90;82.22;101740.34;4989949;28;20046;-76
2022/03/24 08:37:59;;;;;;;28.50;20.63;;;7.90;92.80;;;7.98;81.00;101739.50;4991253;28;20527;-76
2022/03/24 08:40:26;;;;;;;25.38;18.90;;;8.10;92.50;;;8.13;80.13;101742.25;4974357;28;20050;-75
2022/03/24 08:42:54;;;;;;;26.40;19.10;;;8.20;92.40;;;8.26;76.84;101734.50;4990350;28;20050;-75
2022/03/24 08:45:21;;;;;;;28.10;19.27;;;8.30;92.10;;;8.42;74.73;101735.47;4991128;28;20064;-76
2022/03/24 08:47:49;;;;;;;28.80;18.90;;;9.10;91.90;;;8.64;73.40;101736.53;4990923;28;20137;-76
2022/03/24 08:50:16;;;;;;;24.70;18.95;;;8.60;91.60;;;8.73;71.27;101739.22;4990160;28;20129;-76
2022/03/24 08:52:44;;;;;;;23.10;18.50;;;8.70;91.10;;;8.89;70.93;101729.66;4990136;28;20595;-74
2022/03/24 08:55:13;;;;;;;28.65;19.48;;;8.90;91.10;;;8.99;71.19;101728.00;5006578;28;20056;-75
2022/03/24 08:57:43;;;;;;;28.27;19.90;;;9.00;91.00;;;9.15;70.75;101731.53;4974520;28;20149;-75
2022/03/24 09:00:16;;;;;;;27.13;19.48;;;9.10;91.00;;;9.31;70.78;101727.22;4989933;28;20053;-76
2022/03/24 09:02:49;;;;;;;27.40;18.92;;;9.20;91.00;;;9.46;67.78;101726.38;4989734;28;20137;-78
2022/03/24 09:05:19;;;;;;;24.38;18.05;;;9.40;90.50;;;9.60;63.84;101725.53;4991120;28;20046;-75
2022/03/24 09:07:47;;;;;;;26.58;20.17;;;9.50;89.80;;;9.70;60.99;101719.44;4989948;28;20042;-75
2022/03/24 09:10:15;;;;;;;28.35;19.55;;;9.70;88.40;;;9.82;57.24;101731.69;4990412;28;20109;-76
2022/03/24 09:12:47;;;;;;;25.98;18.05;;;10.90;86.70;;;9.89;55.14;101729.97;4994676;28;20120;-76
2022/03/24 09:15:18;;;;;;;25.33;18.80;;;9.90;83.60;;;9.92;52.68;101729.94;4990993;28;20444;-76
2022/03/24 09:17:47;;;;;;;25.50;18.33;;;10.00;81.40;;;10.02;52.12;101726.47;4993164;28;20048;-77
2022/03/24 09:20:23;;;;;;;29.10;19.38;;;10.00;79.90;;;10.16;51.75;101731.69;4994986;28;20508;-78
2022/03/24 09:22:50;;;;;;;23.42;19.00;;;10.10;79.40;;;10.24;51.05;101741.38;4990303;28;20076;-76
2022/03/24 09:25:20;;;;;;;23.50;18.42;;;10.20;78.30;;;10.33;50.49;101731.69;4989519;28;20118;-75
2022/03/24 09:27:49;;;;;;;26.00;18.92;;;10.30;77.10;;;10.47;49.76;101731.69;4989885;28;20634;-75
2022/03/24 09:30:18;;;;;;;25.63;18.33;;;11.50;76.70;;;10.62;49.83;101729.91;4989819;28;20062;-76
2022/03/24 09:32:47;;;;;;;23.40;18.75;;;10.50;75.80;;;10.64;48.45;101739.56;4990332;28;20035;-76
2022/03/24 09:35:16;;;;;;;26.83;18.40;;;10.60;74.30;;;10.76;48.32;101740.41;4990279;28;20553;-76
2022/03/24 09:37:45;;;;;;;24.13;19.02;;;11.50;74.20;;;10.93;47.53;101743.00;4991578;28;20081;-75
2022/03/24 09:40:14;;;;;;;26.08;17.38;;;10.80;72.10;;;11.12;47.53;101741.19;4990909;28;20074;-76
2022/03/24 09:42:42;;;;;;;24.05;16.92;;;11.40;72.20;;;11.24;46.72;101731.44;4989664;28;20500;-76
2022/03/24 09:45:11;;;;;;;27.15;19.05;;;11.00;71.10;;;11.46;48.06;101737.47;4989431;28;20078;-75
2022/03/24 09:47:40;;;;;;;20.38;17.13;;;11.20;72.40;;;11.59;48.05;101733.88;4989205;28;20054;-76
2022/03/24 09:50:09;;;;;;;26.63;18.80;;;11.40;71.90;;;11.83;48.02;101733.72;4973031;28;20112;-75
2022/03/24 09:52:37;;;;;;;26.90;17.90;;;11.60;72.30;;;11.87;47.89;101727.56;4988442;28;20043;-74
2022/03/24 09:55:06;;;;;;;24.40;17.83;;;11.70;71.40;;;12.04;48.35;101730.09;4988428;28;20046;-74
2022/03/24 09:57:33;;;;;;;25.08;19.15;;;11.80;72.00;;;12.19;47.23;101727.31;4972311;28;20049;-74
2022/03/24 10:00:02;;;;;;;29.10;19.20;;;12.10;70.80;;;12.23;46.10;101727.28;4989721;28;20066;-74
2022/03/24 10:02:31;;;;;;;25.17;18.63;;;12.10;68.90;;;12.29;46.02;101727.25;4982821;28;20046;-74
2022/03/24 10:05:02;;;;;;;24.40;19.05;;;12.20;68.90;;;12.43;45.79;101727.09;4968538;28;20047;-75
2022/03/24 10:07:46;;;;;;;25.90;19.67;;;12.30;67.80;;;12.52;45.23;101720.84;4967858;28;20105;-76
2022/03/24 10:10:24;;;;;;;24.05;18.50;;;13.40;67.80;;;12.65;46.02;101725.09;4968378;28;20085;-76
2022/03/24 10:12:52;;;;;;;25.40;18.27;;;12.50;67.60;;;12.70;44.35;101725.91;4969480;28;20385;-74
2022/03/24 10:15:20;;;;;;;24.65;18.15;;;13.30;66.30;;;12.71;44.43;101725.03;4988009;28;20592;-75